sensor_id;sensor_type;location;lat;lon;timestamp;P1;durP1;ratioP1;P2;durP2;ratioP2
7166;SDS011;3625;51.762;14.320;2022-07-06T00:02:13;53.90;;;31.75;;
7166;SDS011;3625;51.762;14.320;2022-07-06T00:04:43;54.47;;;32.97;;
7166;SDS011;3625;51.762;14.320;2022-07-06T00:07:13;57.88;;;33.78;;
7166;SDS011;3625;51.762;14.320;2022-07-06T00:09:43;64.80;;;38.30;;
7166;SDS011;3625;51.762;14.320;2022-07-06T00:12:11;62.42;;;36.78;;
7166;SDS011;3625;51.762;14.320;2022-07-06T00:14:40;58.30;;;33.22;;
7166;SDS011;3625;51.762;14.320;2022-07-06T00:17:09;53.00;;;30.77;;
7166;SDS011;3625;51.762;14.320;2022-07-06T00:19:37;48.22;;;24.92;;
7166;SDS011;3625;51.762;14.320;2022-07-06T00:22:06;43.10;;;23.27;;
7166;SDS011;3625;51.762;14.320;2022-07-06T00:24:37;33.45;;;20.08;;
7166;SDS011;3625;51.762;14.320;2022-07-06T00:27:07;28.65;;;16.02;;
7166;SDS011;3625;51.762;14.320;2022-07-06T00:29:37;21.65;;;11.73;;
7166;SDS011;3625;51.762;14.320;2022-07-06T00:32:11;16.75;;;9.68;;
7166;SDS011;3625;51.762;14.320;2022-07-06T00:34:41;10.60;;;6.63;;
7166;SDS011;3625;51.762;14.320;2022-07-06T00:37:09;7.88;;;5.68;;
7166;SDS011;3625;51.762;14.320;2022-07-06T00:39:39;8.23;;;5.20;;
7166;SDS011;3625;51.762;14.320;2022-07-06T00:42:07;6.15;;;4.10;;
7166;SDS011;3625;51.762;14.320;2022-07-06T00:44:36;4.93;;;3.67;;
7166;SDS011;3625;51.762;14.320;2022-07-06T00:47:04;7.05;;;3.00;;
7166;SDS011;3625;51.762;14.320;2022-07-06T00:49:34;5.40;;;2.88;;
7166;SDS011;3625;51.762;14.320;2022-07-06T00:52:20;3.03;;;2.38;;
7166;SDS011;3625;51.762;14.320;2022-07-06T00:54:50;2.10;;;1.90;;
7166;SDS011;3625;51.762;14.320;2022-07-06T00:57:20;2.38;;;2.10;;
7166;SDS011;3625;51.762;14.320;2022-07-06T00:59:51;4.50;;;2.00;;
7166;SDS011;3625;51.762;14.320;2022-07-06T01:02:21;4.20;;;2.15;;
7166;SDS011;3625;51.762;14.320;2022-07-06T01:04:50;2.08;;;1.70;;
7166;SDS011;3625;51.762;14.320;2022-07-06T01:07:18;3.63;;;1.83;;
7166;SDS011;3625;51.762;14.320;2022-07-06T01:09:46;3.65;;;1.75;;
7166;SDS011;3625;51.762;14.320;2022-07-06T01:12:17;2.85;;;1.70;;
7166;SDS011;3625;51.762;14.320;2022-07-06T01:14:46;1.70;;;1.60;;
7166;SDS011;3625;51.762;14.320;2022-07-06T01:17:15;2.70;;;1.77;;
7166;SDS011;3625;51.762;14.320;2022-07-06T01:19:45;2.45;;;1.55;;
7166;SDS011;3625;51.762;14.320;2022-07-06T01:22:19;1.70;;;1.60;;
7166;SDS011;3625;51.762;14.320;2022-07-06T01:24:47;1.92;;;1.70;;
7166;SDS011;3625;51.762;14.320;2022-07-06T01:27:15;2.13;;;1.40;;
7166;SDS011;3625;51.762;14.320;2022-07-06T01:29:46;1.67;;;1.58;;
7166;SDS011;3625;51.762;14.320;2022-07-06T01:32:18;1.90;;;1.50;;
7166;SDS011;3625;51.762;14.320;2022-07-06T01:34:47;2.15;;;1.70;;
7166;SDS011;3625;51.762;14.320;2022-07-06T01:37:15;1.67;;;1.50;;
7166;SDS011;3625;51.762;14.320;2022-07-06T01:39:48;2.10;;;1.90;;
7166;SDS011;3625;51.762;14.320;2022-07-06T01:42:20;2.90;;;1.88;;
7166;SDS011;3625;51.762;14.320;2022-07-06T01:44:49;2.00;;;1.40;;
7166;SDS011;3625;51.762;14.320;2022-07-06T01:47:23;1.90;;;1.40;;
7166;SDS011;3625;51.762;14.320;2022-07-06T01:49:52;1.90;;;1.60;;
7166;SDS011;3625;51.762;14.320;2022-07-06T01:52:21;1.60;;;1.50;;
7166;SDS011;3625;51.762;14.320;2022-07-06T01:54:55;3.28;;;1.60;;
7166;SDS011;3625;51.762;14.320;2022-07-06T01:57:25;3.08;;;1.67;;
7166;SDS011;3625;51.762;14.320;2022-07-06T01:59:55;4.10;;;1.77;;
7166;SDS011;3625;51.762;14.320;2022-07-06T02:02:24;2.10;;;1.48;;
7166;SDS011;3625;51.762;14.320;2022-07-06T02:04:55;1.70;;;1.52;;
7166;SDS011;3625;51.762;14.320;2022-07-06T02:07:23;2.55;;;1.52;;
7166;SDS011;3625;51.762;14.320;2022-07-06T02:09:51;5.65;;;1.80;;
7166;SDS011;3625;51.762;14.320;2022-07-06T02:12:25;2.03;;;1.70;;
7166;SDS011;3625;51.762;14.320;2022-07-06T02:14:59;2.58;;;1.52;;
7166;SDS011;3625;51.762;14.320;2022-07-06T02:17:30;1.77;;;1.67;;
7166;SDS011;3625;51.762;14.320;2022-07-06T02:19:58;4.05;;;1.42;;
7166;SDS011;3625;51.762;14.320;2022-07-06T02:22:27;1.98;;;1.63;;
7166;SDS011;3625;51.762;14.320;2022-07-06T02:25:00;2.97;;;1.63;;
7166;SDS011;3625;51.762;14.320;2022-07-06T02:27:33;3.15;;;1.70;;
7166;SDS011;3625;51.762;14.320;2022-07-06T02:30:12;1.60;;;1.50;;
7166;SDS011;3625;51.762;14.320;2022-07-06T02:32:44;1.98;;;1.65;;
7166;SDS011;3625;51.762;14.320;2022-07-06T02:35:13;1.60;;;1.45;;
7166;SDS011;3625;51.762;14.320;2022-07-06T02:37:44;1.90;;;1.50;;
7166;SDS011;3625;51.762;14.320;2022-07-06T02:40:13;1.70;;;1.60;;
7166;SDS011;3625;51.762;14.320;2022-07-06T02:42:44;2.38;;;1.60;;
7166;SDS011;3625;51.762;14.320;2022-07-06T02:45:16;3.00;;;2.10;;
7166;SDS011;3625;51.762;14.320;2022-07-06T02:47:47;2.00;;;1.80;;
7166;SDS011;3625;51.762;14.320;2022-07-06T02:50:17;2.13;;;1.85;;
7166;SDS011;3625;51.762;14.320;2022-07-06T02:52:50;2.35;;;1.80;;
7166;SDS011;3625;51.762;14.320;2022-07-06T02:55:20;2.28;;;1.77;;
7166;SDS011;3625;51.762;14.320;2022-07-06T02:57:51;3.33;;;1.77;;
7166;SDS011;3625;51.762;14.320;2022-07-06T03:00:27;4.30;;;1.80;;
7166;SDS011;3625;51.762;14.320;2022-07-06T03:02:56;2.88;;;1.80;;
7166;SDS011;3625;51.762;14.320;2022-07-06T03:05:27;2.60;;;1.70;;
7166;SDS011;3625;51.762;14.320;2022-07-06T03:07:55;3.25;;;1.80;;
7166;SDS011;3625;51.762;14.320;2022-07-06T03:10:25;2.25;;;1.95;;
7166;SDS011;3625;51.762;14.320;2022-07-06T03:12:57;2.75;;;1.80;;
7166;SDS011;3625;51.762;14.320;2022-07-06T03:15:28;3.20;;;1.75;;
7166;SDS011;3625;51.762;14.320;2022-07-06T03:17:59;2.72;;;2.00;;
7166;SDS011;3625;51.762;14.320;2022-07-06T03:20:31;3.08;;;1.80;;
7166;SDS011;3625;51.762;14.320;2022-07-06T03:23:06;2.20;;;1.95;;
7166;SDS011;3625;51.762;14.320;2022-07-06T03:25:35;3.55;;;2.22;;
7166;SDS011;3625;51.762;14.320;2022-07-06T03:28:06;2.50;;;1.77;;
7166;SDS011;3625;51.762;14.320;2022-07-06T03:30:37;2.13;;;1.80;;
7166;SDS011;3625;51.762;14.320;2022-07-06T03:33:08;3.22;;;1.63;;
7166;SDS011;3625;51.762;14.320;2022-07-06T03:35:37;1.90;;;1.75;;
7166;SDS011;3625;51.762;14.320;2022-07-06T03:38:07;3.33;;;1.88;;
7166;SDS011;3625;51.762;14.320;2022-07-06T03:40:39;2.28;;;1.80;;
7166;SDS011;3625;51.762;14.320;2022-07-06T03:43:11;2.22;;;1.80;;
7166;SDS011;3625;51.762;14.320;2022-07-06T03:45:42;5.03;;;1.90;;
7166;SDS011;3625;51.762;14.320;2022-07-06T03:48:15;2.30;;;1.60;;
7166;SDS011;3625;51.762;14.320;2022-07-06T03:50:46;4.32;;;2.60;;
7166;SDS011;3625;51.762;14.320;2022-07-06T03:53:28;2.97;;;2.00;;
7166;SDS011;3625;51.762;14.320;2022-07-06T03:56:01;1.83;;;1.73;;
7166;SDS011;3625;51.762;14.320;2022-07-06T03:58:49;1.98;;;1.77;;
7166;SDS011;3625;51.762;14.320;2022-07-06T04:01:17;1.85;;;1.75;;
7166;SDS011;3625;51.762;14.320;2022-07-06T04:03:46;1.92;;;1.83;;
7166;SDS011;3625;51.762;14.320;2022-07-06T04:06:25;2.63;;;2.10;;
7166;SDS011;3625;51.762;14.320;2022-07-06T04:09:02;2.10;;;1.90;;
7166;SDS011;3625;51.762;14.320;2022-07-06T04:11:31;2.00;;;1.80;;
7166;SDS011;3625;51.762;14.320;2022-07-06T04:14:01;2.15;;;1.73;;
7166;SDS011;3625;51.762;14.320;2022-07-06T04:16:38;2.08;;;1.88;;
7166;SDS011;3625;51.762;14.320;2022-07-06T04:19:08;2.78;;;1.85;;
7166;SDS011;3625;51.762;14.320;2022-07-06T04:21:37;2.53;;;1.70;;
7166;SDS011;3625;51.762;14.320;2022-07-06T04:24:08;3.13;;;1.60;;
7166;SDS011;3625;51.762;14.320;2022-07-06T04:26:37;1.90;;;1.80;;
7166;SDS011;3625;51.762;14.320;2022-07-06T04:29:07;2.47;;;2.10;;
7166;SDS011;3625;51.762;14.320;2022-07-06T04:31:38;1.88;;;1.77;;
7166;SDS011;3625;51.762;14.320;2022-07-06T04:34:07;2.22;;;1.75;;
7166;SDS011;3625;51.762;14.320;2022-07-06T04:36:36;1.70;;;1.60;;
7166;SDS011;3625;51.762;14.320;2022-07-06T04:39:05;2.78;;;1.60;;
7166;SDS011;3625;51.762;14.320;2022-07-06T04:41:34;1.90;;;1.80;;
7166;SDS011;3625;51.762;14.320;2022-07-06T04:44:04;4.78;;;2.17;;
7166;SDS011;3625;51.762;14.320;2022-07-06T04:46:34;2.47;;;2.00;;
7166;SDS011;3625;51.762;14.320;2022-07-06T04:49:03;2.42;;;2.03;;
7166;SDS011;3625;51.762;14.320;2022-07-06T04:51:31;1.92;;;1.65;;
7166;SDS011;3625;51.762;14.320;2022-07-06T04:54:01;2.25;;;1.60;;
7166;SDS011;3625;51.762;14.320;2022-07-06T04:56:33;2.47;;;1.63;;
7166;SDS011;3625;51.762;14.320;2022-07-06T04:59:03;2.20;;;1.85;;
7166;SDS011;3625;51.762;14.320;2022-07-06T05:01:39;1.75;;;1.40;;
7166;SDS011;3625;51.762;14.320;2022-07-06T05:04:10;3.90;;;1.85;;
7166;SDS011;3625;51.762;14.320;2022-07-06T05:06:46;1.50;;;1.40;;
7166;SDS011;3625;51.762;14.320;2022-07-06T05:09:17;2.55;;;1.40;;
7166;SDS011;3625;51.762;14.320;2022-07-06T05:11:47;2.30;;;1.77;;
7166;SDS011;3625;51.762;14.320;2022-07-06T05:14:17;1.75;;;1.42;;
7166;SDS011;3625;51.762;14.320;2022-07-06T05:16:53;3.03;;;1.98;;
7166;SDS011;3625;51.762;14.320;2022-07-06T05:19:29;2.08;;;1.80;;
7166;SDS011;3625;51.762;14.320;2022-07-06T05:22:07;3.03;;;1.73;;
7166;SDS011;3625;51.762;14.320;2022-07-06T05:24:38;1.92;;;1.27;;
7166;SDS011;3625;51.762;14.320;2022-07-06T05:27:07;2.65;;;1.40;;
7166;SDS011;3625;51.762;14.320;2022-07-06T05:29:38;3.28;;;1.77;;
7166;SDS011;3625;51.762;14.320;2022-07-06T05:32:10;2.40;;;1.50;;
7166;SDS011;3625;51.762;14.320;2022-07-06T05:34:38;2.25;;;1.65;;
7166;SDS011;3625;51.762;14.320;2022-07-06T05:37:08;3.45;;;1.60;;
7166;SDS011;3625;51.762;14.320;2022-07-06T05:39:42;3.63;;;1.73;;
7166;SDS011;3625;51.762;14.320;2022-07-06T05:42:17;2.65;;;1.65;;
7166;SDS011;3625;51.762;14.320;2022-07-06T05:44:48;4.07;;;2.10;;
7166;SDS011;3625;51.762;14.320;2022-07-06T05:47:18;1.83;;;1.50;;
7166;SDS011;3625;51.762;14.320;2022-07-06T05:50:05;2.20;;;1.60;;
7166;SDS011;3625;51.762;14.320;2022-07-06T05:52:57;5.07;;;1.45;;
7166;SDS011;3625;51.762;14.320;2022-07-06T05:55:45;2.25;;;1.58;;
7166;SDS011;3625;51.762;14.320;2022-07-06T05:58:16;1.58;;;1.33;;
7166;SDS011;3625;51.762;14.320;2022-07-06T06:00:48;3.08;;;1.48;;
7166;SDS011;3625;51.762;14.320;2022-07-06T06:03:20;2.75;;;1.27;;
7166;SDS011;3625;51.762;14.320;2022-07-06T06:05:50;2.80;;;1.70;;
7166;SDS011;3625;51.762;14.320;2022-07-06T06:08:20;3.80;;;1.60;;
7166;SDS011;3625;51.762;14.320;2022-07-06T06:10:58;2.88;;;1.40;;
7166;SDS011;3625;51.762;14.320;2022-07-06T06:13:33;2.63;;;1.30;;
7166;SDS011;3625;51.762;14.320;2022-07-06T06:16:01;3.42;;;1.50;;
7166;SDS011;3625;51.762;14.320;2022-07-06T06:18:31;2.20;;;1.40;;
7166;SDS011;3625;51.762;14.320;2022-07-06T06:21:08;2.38;;;1.38;;
7166;SDS011;3625;51.762;14.320;2022-07-06T06:23:41;3.97;;;1.42;;
7166;SDS011;3625;51.762;14.320;2022-07-06T06:26:10;4.03;;;1.42;;
7166;SDS011;3625;51.762;14.320;2022-07-06T06:28:38;4.22;;;1.35;;
7166;SDS011;3625;51.762;14.320;2022-07-06T06:31:10;1.88;;;1.20;;
7166;SDS011;3625;51.762;14.320;2022-07-06T06:33:44;3.15;;;1.38;;
7166;SDS011;3625;51.762;14.320;2022-07-06T06:36:13;2.08;;;1.40;;
7166;SDS011;3625;51.762;14.320;2022-07-06T06:38:44;2.80;;;1.30;;
7166;SDS011;3625;51.762;14.320;2022-07-06T06:41:25;1.73;;;1.00;;
7166;SDS011;3625;51.762;14.320;2022-07-06T06:43:55;4.15;;;1.35;;
7166;SDS011;3625;51.762;14.320;2022-07-06T06:46:28;3.83;;;1.38;;
7166;SDS011;3625;51.762;14.320;2022-07-06T06:48:59;1.10;;;1.00;;
7166;SDS011;3625;51.762;14.320;2022-07-06T06:51:28;1.98;;;1.20;;
7166;SDS011;3625;51.762;14.320;2022-07-06T06:54:06;2.78;;;1.33;;
7166;SDS011;3625;51.762;14.320;2022-07-06T06:56:35;1.85;;;1.00;;
7166;SDS011;3625;51.762;14.320;2022-07-06T06:59:03;4.07;;;1.63;;
7166;SDS011;3625;51.762;14.320;2022-07-06T07:01:43;1.50;;;1.40;;
7166;SDS011;3625;51.762;14.320;2022-07-06T07:04:20;2.65;;;1.45;;
7166;SDS011;3625;51.762;14.320;2022-07-06T07:06:51;2.08;;;1.27;;
7166;SDS011;3625;51.762;14.320;2022-07-06T07:09:25;1.77;;;1.40;;
7166;SDS011;3625;51.762;14.320;2022-07-06T07:11:54;2.92;;;1.33;;
7166;SDS011;3625;51.762;14.320;2022-07-06T07:14:22;3.63;;;1.38;;
7166;SDS011;3625;51.762;14.320;2022-07-06T07:16:51;3.55;;;2.30;;
7166;SDS011;3625;51.762;14.320;2022-07-06T07:19:21;2.15;;;1.40;;
7166;SDS011;3625;51.762;14.320;2022-07-06T07:21:52;1.10;;;1.00;;
7166;SDS011;3625;51.762;14.320;2022-07-06T07:24:25;3.08;;;1.20;;
7166;SDS011;3625;51.762;14.320;2022-07-06T07:26:53;2.88;;;1.20;;
7166;SDS011;3625;51.762;14.320;2022-07-06T07:29:24;1.98;;;1.25;;
7166;SDS011;3625;51.762;14.320;2022-07-06T07:31:55;1.20;;;1.10;;
7166;SDS011;3625;51.762;14.320;2022-07-06T07:34:32;2.85;;;1.25;;
7166;SDS011;3625;51.762;14.320;2022-07-06T07:37:03;2.88;;;1.30;;
7166;SDS011;3625;51.762;14.320;2022-07-06T07:39:34;2.67;;;1.23;;
7166;SDS011;3625;51.762;14.320;2022-07-06T07:42:03;1.42;;;1.02;;
7166;SDS011;3625;51.762;14.320;2022-07-06T07:44:37;1.77;;;1.10;;
7166;SDS011;3625;51.762;14.320;2022-07-06T07:47:07;2.10;;;0.90;;
7166;SDS011;3625;51.762;14.320;2022-07-06T07:49:40;1.58;;;1.10;;
7166;SDS011;3625;51.762;14.320;2022-07-06T07:52:09;1.95;;;1.00;;
7166;SDS011;3625;51.762;14.320;2022-07-06T07:54:38;1.27;;;0.93;;
7166;SDS011;3625;51.762;14.320;2022-07-06T07:57:14;2.92;;;1.20;;
7166;SDS011;3625;51.762;14.320;2022-07-06T07:59:47;3.17;;;1.20;;
7166;SDS011;3625;51.762;14.320;2022-07-06T08:02:15;2.92;;;1.30;;
7166;SDS011;3625;51.762;14.320;2022-07-06T08:04:45;1.00;;;0.90;;
7166;SDS011;3625;51.762;14.320;2022-07-06T08:07:15;2.22;;;1.20;;
7166;SDS011;3625;51.762;14.320;2022-07-06T08:09:45;1.45;;;1.05;;
7166;SDS011;3625;51.762;14.320;2022-07-06T08:12:14;1.15;;;1.02;;
7166;SDS011;3625;51.762;14.320;2022-07-06T08:14:46;3.08;;;1.17;;
7166;SDS011;3625;51.762;14.320;2022-07-06T08:17:16;2.97;;;1.23;;
7166;SDS011;3625;51.762;14.320;2022-07-06T08:19:49;2.53;;;1.30;;
7166;SDS011;3625;51.762;14.320;2022-07-06T08:22:31;4.20;;;1.20;;
7166;SDS011;3625;51.762;14.320;2022-07-06T08:25:09;2.70;;;1.20;;
7166;SDS011;3625;51.762;14.320;2022-07-06T08:27:41;2.92;;;1.10;;
7166;SDS011;3625;51.762;14.320;2022-07-06T08:30:12;1.65;;;1.10;;
7166;SDS011;3625;51.762;14.320;2022-07-06T08:32:42;2.45;;;1.33;;
7166;SDS011;3625;51.762;14.320;2022-07-06T08:35:36;4.07;;;1.20;;
7166;SDS011;3625;51.762;14.320;2022-07-06T08:38:07;2.13;;;1.30;;
7166;SDS011;3625;51.762;14.320;2022-07-06T08:40:35;3.03;;;1.58;;
7166;SDS011;3625;51.762;14.320;2022-07-06T08:43:08;2.45;;;1.10;;
7166;SDS011;3625;51.762;14.320;2022-07-06T08:45:42;2.25;;;1.00;;
7166;SDS011;3625;51.762;14.320;2022-07-06T08:48:17;3.55;;;1.10;;
7166;SDS011;3625;51.762;14.320;2022-07-06T08:50:51;2.42;;;1.20;;
7166;SDS011;3625;51.762;14.320;2022-07-06T08:53:23;3.42;;;1.27;;
7166;SDS011;3625;51.762;14.320;2022-07-06T08:55:54;2.10;;;1.38;;
7166;SDS011;3625;51.762;14.320;2022-07-06T08:58:25;2.35;;;1.17;;
7166;SDS011;3625;51.762;14.320;2022-07-06T09:00:55;1.63;;;1.10;;
7166;SDS011;3625;51.762;14.320;2022-07-06T09:03:24;4.93;;;1.30;;
7166;SDS011;3625;51.762;14.320;2022-07-06T09:05:58;2.30;;;1.05;;
7166;SDS011;3625;51.762;14.320;2022-07-06T09:08:29;2.75;;;1.33;;
7166;SDS011;3625;51.762;14.320;2022-07-06T09:11:06;4.53;;;1.33;;
7166;SDS011;3625;51.762;14.320;2022-07-06T09:13:36;1.65;;;1.10;;
7166;SDS011;3625;51.762;14.320;2022-07-06T09:16:08;4.20;;;1.20;;
7166;SDS011;3625;51.762;14.320;2022-07-06T09:18:58;1.95;;;1.08;;
7166;SDS011;3625;51.762;14.320;2022-07-06T09:21:31;2.25;;;1.08;;
7166;SDS011;3625;51.762;14.320;2022-07-06T09:24:06;2.35;;;1.15;;
7166;SDS011;3625;51.762;14.320;2022-07-06T09:26:43;1.30;;;0.80;;
7166;SDS011;3625;51.762;14.320;2022-07-06T09:29:15;1.35;;;1.00;;
7166;SDS011;3625;51.762;14.320;2022-07-06T09:31:57;2.30;;;0.88;;
7166;SDS011;3625;51.762;14.320;2022-07-06T09:34:40;2.20;;;1.00;;
7166;SDS011;3625;51.762;14.320;2022-07-06T09:37:12;1.15;;;0.80;;
7166;SDS011;3625;51.762;14.320;2022-07-06T09:39:42;3.75;;;1.10;;
7166;SDS011;3625;51.762;14.320;2022-07-06T09:42:13;2.22;;;0.80;;
7166;SDS011;3625;51.762;14.320;2022-07-06T09:44:41;1.02;;;0.90;;
7166;SDS011;3625;51.762;14.320;2022-07-06T09:47:11;1.70;;;0.98;;
7166;SDS011;3625;51.762;14.320;2022-07-06T09:49:45;1.75;;;1.13;;
7166;SDS011;3625;51.762;14.320;2022-07-06T09:52:16;3.42;;;1.30;;
7166;SDS011;3625;51.762;14.320;2022-07-06T09:54:48;2.97;;;1.10;;
7166;SDS011;3625;51.762;14.320;2022-07-06T09:57:16;1.02;;;0.90;;
7166;SDS011;3625;51.762;14.320;2022-07-06T09:59:49;1.83;;;1.13;;
7166;SDS011;3625;51.762;14.320;2022-07-06T10:02:20;2.05;;;0.93;;
7166;SDS011;3625;51.762;14.320;2022-07-06T10:04:55;3.13;;;1.15;;
7166;SDS011;3625;51.762;14.320;2022-07-06T10:07:25;1.83;;;1.00;;
7166;SDS011;3625;51.762;14.320;2022-07-06T10:09:54;3.28;;;1.08;;
7166;SDS011;3625;51.762;14.320;2022-07-06T10:12:30;2.50;;;1.13;;
7166;SDS011;3625;51.762;14.320;2022-07-06T10:14:59;2.03;;;1.10;;
7166;SDS011;3625;51.762;14.320;2022-07-06T10:17:28;2.83;;;1.23;;
7166;SDS011;3625;51.762;14.320;2022-07-06T10:20:01;2.35;;;1.15;;
7166;SDS011;3625;51.762;14.320;2022-07-06T10:22:35;2.28;;;1.10;;
7166;SDS011;3625;51.762;14.320;2022-07-06T10:25:06;1.63;;;0.93;;
7166;SDS011;3625;51.762;14.320;2022-07-06T10:27:36;2.13;;;1.10;;
7166;SDS011;3625;51.762;14.320;2022-07-06T10:30:13;1.55;;;0.98;;
7166;SDS011;3625;51.762;14.320;2022-07-06T10:32:44;3.55;;;1.20;;
7166;SDS011;3625;51.762;14.320;2022-07-06T10:35:24;0.90;;;0.80;;
7166;SDS011;3625;51.762;14.320;2022-07-06T10:38:10;1.80;;;0.93;;
7166;SDS011;3625;51.762;14.320;2022-07-06T10:40:49;2.50;;;0.98;;
7166;SDS011;3625;51.762;14.320;2022-07-06T10:43:55;2.13;;;1.10;;
7166;SDS011;3625;51.762;14.320;2022-07-06T10:46:57;2.38;;;0.93;;
7166;SDS011;3625;51.762;14.320;2022-07-06T10:49:36;1.40;;;1.02;;
7166;SDS011;3625;51.762;14.320;2022-07-06T10:52:48;1.65;;;0.75;;
7166;SDS011;3625;51.762;14.320;2022-07-06T10:55:35;1.08;;;0.95;;
7166;SDS011;3625;51.762;14.320;2022-07-06T10:58:48;3.33;;;1.13;;
7166;SDS011;3625;51.762;14.320;2022-07-06T11:01:40;2.88;;;1.10;;
7166;SDS011;3625;51.762;14.320;2022-07-06T11:04:42;5.22;;;1.05;;
7166;SDS011;3625;51.762;14.320;2022-07-06T11:07:13;1.35;;;0.80;;
7166;SDS011;3625;51.762;14.320;2022-07-06T11:09:46;1.88;;;1.10;;
7166;SDS011;3625;51.762;14.320;2022-07-06T11:12:24;3.17;;;1.20;;
7166;SDS011;3625;51.762;14.320;2022-07-06T11:14:53;1.52;;;0.90;;
7166;SDS011;3625;51.762;14.320;2022-07-06T11:17:22;1.55;;;1.08;;
7166;SDS011;3625;51.762;14.320;2022-07-06T11:19:55;1.88;;;1.10;;
7166;SDS011;3625;51.762;14.320;2022-07-06T11:22:26;1.00;;;0.80;;
7166;SDS011;3625;51.762;14.320;2022-07-06T11:24:57;2.88;;;1.25;;
7166;SDS011;3625;51.762;14.320;2022-07-06T11:27:31;1.65;;;0.98;;
7166;SDS011;3625;51.762;14.320;2022-07-06T11:30:04;1.20;;;0.90;;
7166;SDS011;3625;51.762;14.320;2022-07-06T11:32:41;1.52;;;0.93;;
7166;SDS011;3625;51.762;14.320;2022-07-06T11:35:22;1.92;;;0.90;;
7166;SDS011;3625;51.762;14.320;2022-07-06T11:37:52;1.45;;;0.90;;
7166;SDS011;3625;51.762;14.320;2022-07-06T11:40:20;1.58;;;0.80;;
7166;SDS011;3625;51.762;14.320;2022-07-06T11:42:54;2.42;;;1.02;;
7166;SDS011;3625;51.762;14.320;2022-07-06T11:45:25;1.83;;;1.00;;
7166;SDS011;3625;51.762;14.320;2022-07-06T11:48:09;2.60;;;1.10;;
7166;SDS011;3625;51.762;14.320;2022-07-06T11:50:44;1.80;;;1.00;;
7166;SDS011;3625;51.762;14.320;2022-07-06T11:53:26;2.20;;;0.98;;
7166;SDS011;3625;51.762;14.320;2022-07-06T11:55:55;2.92;;;0.90;;
7166;SDS011;3625;51.762;14.320;2022-07-06T11:58:32;2.40;;;1.20;;
7166;SDS011;3625;51.762;14.320;2022-07-06T12:01:05;1.10;;;0.85;;
7166;SDS011;3625;51.762;14.320;2022-07-06T12:03:35;1.60;;;0.90;;
7166;SDS011;3625;51.762;14.320;2022-07-06T12:06:05;1.48;;;0.80;;
7166;SDS011;3625;51.762;14.320;2022-07-06T12:08:42;2.67;;;1.00;;
7166;SDS011;3625;51.762;14.320;2022-07-06T12:11:21;1.60;;;1.10;;
7166;SDS011;3625;51.762;14.320;2022-07-06T12:13:54;1.42;;;1.08;;
7166;SDS011;3625;51.762;14.320;2022-07-06T12:16:29;3.65;;;1.02;;
7166;SDS011;3625;51.762;14.320;2022-07-06T12:19:01;2.42;;;1.00;;
7166;SDS011;3625;51.762;14.320;2022-07-06T12:21:33;1.17;;;0.82;;
7166;SDS011;3625;51.762;14.320;2022-07-06T12:24:05;1.60;;;0.90;;
7166;SDS011;3625;51.762;14.320;2022-07-06T12:26:38;1.80;;;0.90;;
7166;SDS011;3625;51.762;14.320;2022-07-06T12:29:10;3.70;;;0.85;;
7166;SDS011;3625;51.762;14.320;2022-07-06T12:31:41;1.33;;;0.80;;
7166;SDS011;3625;51.762;14.320;2022-07-06T12:34:16;2.42;;;0.80;;
7166;SDS011;3625;51.762;14.320;2022-07-06T12:36:47;1.50;;;0.73;;
7166;SDS011;3625;51.762;14.320;2022-07-06T12:39:21;1.00;;;0.80;;
7166;SDS011;3625;51.762;14.320;2022-07-06T12:41:53;2.22;;;1.10;;
7166;SDS011;3625;51.762;14.320;2022-07-06T12:44:25;2.58;;;0.90;;
7166;SDS011;3625;51.762;14.320;2022-07-06T12:47:01;2.08;;;1.10;;
7166;SDS011;3625;51.762;14.320;2022-07-06T12:49:34;1.95;;;0.95;;
7166;SDS011;3625;51.762;14.320;2022-07-06T12:52:45;3.78;;;1.00;;
7166;SDS011;3625;51.762;14.320;2022-07-06T12:56:09;2.58;;;0.82;;
7166;SDS011;3625;51.762;14.320;2022-07-06T12:59:20;1.30;;;0.80;;
7166;SDS011;3625;51.762;14.320;2022-07-06T13:01:54;2.63;;;1.00;;
7166;SDS011;3625;51.762;14.320;2022-07-06T13:04:24;1.25;;;0.90;;
7166;SDS011;3625;51.762;14.320;2022-07-06T13:07:05;2.70;;;0.77;;
7166;SDS011;3625;51.762;14.320;2022-07-06T13:09:47;1.65;;;0.95;;
7166;SDS011;3625;51.762;14.320;2022-07-06T13:12:16;1.05;;;0.90;;
7166;SDS011;3625;51.762;14.320;2022-07-06T13:14:46;3.17;;;0.80;;
7166;SDS011;3625;51.762;14.320;2022-07-06T13:17:36;5.18;;;1.05;;
7166;SDS011;3625;51.762;14.320;2022-07-06T13:20:11;1.85;;;0.88;;
7166;SDS011;3625;51.762;14.320;2022-07-06T13:22:50;3.28;;;0.90;;
7166;SDS011;3625;51.762;14.320;2022-07-06T13:25:21;1.98;;;0.90;;
7166;SDS011;3625;51.762;14.320;2022-07-06T13:27:52;2.03;;;0.90;;
7166;SDS011;3625;51.762;14.320;2022-07-06T13:30:51;1.38;;;0.80;;
7166;SDS011;3625;51.762;14.320;2022-07-06T13:33:34;2.03;;;0.93;;
7166;SDS011;3625;51.762;14.320;2022-07-06T13:36:07;3.40;;;1.00;;
7166;SDS011;3625;51.762;14.320;2022-07-06T13:39:05;1.67;;;0.70;;
7166;SDS011;3625;51.762;14.320;2022-07-06T13:41:55;2.50;;;1.08;;
7166;SDS011;3625;51.762;14.320;2022-07-06T13:44:27;1.65;;;0.90;;
7166;SDS011;3625;51.762;14.320;2022-07-06T13:46:59;2.72;;;1.33;;
7166;SDS011;3625;51.762;14.320;2022-07-06T13:49:33;0.80;;;0.80;;
7166;SDS011;3625;51.762;14.320;2022-07-06T13:52:04;2.92;;;0.88;;
7166;SDS011;3625;51.762;14.320;2022-07-06T13:54:33;2.63;;;0.90;;
7166;SDS011;3625;51.762;14.320;2022-07-06T13:57:02;2.47;;;0.95;;
7166;SDS011;3625;51.762;14.320;2022-07-06T13:59:34;2.13;;;0.90;;
7166;SDS011;3625;51.762;14.320;2022-07-06T14:02:04;3.70;;;0.88;;
7166;SDS011;3625;51.762;14.320;2022-07-06T14:04:34;1.45;;;0.90;;
7166;SDS011;3625;51.762;14.320;2022-07-06T14:07:03;2.17;;;0.90;;
7166;SDS011;3625;51.762;14.320;2022-07-06T14:09:33;1.27;;;0.90;;
7166;SDS011;3625;51.762;14.320;2022-07-06T14:12:04;2.17;;;0.73;;
7166;SDS011;3625;51.762;14.320;2022-07-06T14:14:33;1.67;;;0.70;;
7166;SDS011;3625;51.762;14.320;2022-07-06T14:17:05;3.25;;;0.95;;
7166;SDS011;3625;51.762;14.320;2022-07-06T14:19:38;1.30;;;0.80;;
7166;SDS011;3625;51.762;14.320;2022-07-06T14:22:06;1.73;;;0.90;;
7166;SDS011;3625;51.762;14.320;2022-07-06T14:24:34;1.63;;;0.80;;
7166;SDS011;3625;51.762;14.320;2022-07-06T14:27:05;1.48;;;0.80;;
7166;SDS011;3625;51.762;14.320;2022-07-06T14:29:37;0.95;;;0.80;;
7166;SDS011;3625;51.762;14.320;2022-07-06T14:32:06;2.97;;;0.80;;
7166;SDS011;3625;51.762;14.320;2022-07-06T14:34:42;1.60;;;0.85;;
7166;SDS011;3625;51.762;14.320;2022-07-06T14:37:20;1.75;;;0.90;;
7166;SDS011;3625;51.762;14.320;2022-07-06T14:39:50;1.27;;;0.80;;
7166;SDS011;3625;51.762;14.320;2022-07-06T14:42:19;1.08;;;0.80;;
7166;SDS011;3625;51.762;14.320;2022-07-06T14:44:53;2.15;;;0.80;;
7166;SDS011;3625;51.762;14.320;2022-07-06T14:47:24;2.33;;;0.90;;
7166;SDS011;3625;51.762;14.320;2022-07-06T14:49:53;1.17;;;0.77;;
7166;SDS011;3625;51.762;14.320;2022-07-06T14:52:22;1.80;;;0.82;;
7166;SDS011;3625;51.762;14.320;2022-07-06T14:54:53;1.45;;;0.90;;
7166;SDS011;3625;51.762;14.320;2022-07-06T14:57:39;1.77;;;0.82;;
7166;SDS011;3625;51.762;14.320;2022-07-06T15:00:14;2.15;;;0.95;;
7166;SDS011;3625;51.762;14.320;2022-07-06T15:02:50;2.05;;;1.00;;
7166;SDS011;3625;51.762;14.320;2022-07-06T15:05:19;0.98;;;0.85;;
7166;SDS011;3625;51.762;14.320;2022-07-06T15:07:50;1.35;;;0.90;;
7166;SDS011;3625;51.762;14.320;2022-07-06T15:10:25;1.17;;;1.05;;
7166;SDS011;3625;51.762;14.320;2022-07-06T15:12:54;1.05;;;0.77;;
7166;SDS011;3625;51.762;14.320;2022-07-06T15:15:25;2.88;;;0.90;;
7166;SDS011;3625;51.762;14.320;2022-07-06T15:18:16;1.08;;;0.70;;
7166;SDS011;3625;51.762;14.320;2022-07-06T15:20:55;9.98;;;1.35;;
7166;SDS011;3625;51.762;14.320;2022-07-06T15:23:30;2.22;;;0.80;;
7166;SDS011;3625;51.762;14.320;2022-07-06T15:26:01;2.03;;;0.80;;
7166;SDS011;3625;51.762;14.320;2022-07-06T15:28:32;0.93;;;0.70;;
7166;SDS011;3625;51.762;14.320;2022-07-06T15:31:01;3.17;;;0.90;;
7166;SDS011;3625;51.762;14.320;2022-07-06T15:33:31;0.77;;;0.70;;
7166;SDS011;3625;51.762;14.320;2022-07-06T15:36:08;0.60;;;0.60;;
7166;SDS011;3625;51.762;14.320;2022-07-06T15:38:46;2.30;;;0.70;;